Time;durP1;ratioP1;P1;durP2;ratioP2;P2;SDS_P1;SDS_P2;PMS_P1;PMS_P2;Temp;Humidity;BMP_temperature;BMP_pressure;BME280_temperature;BME280_humidity;BME280_pressure;Samples;Min_cycle;Max_cycle;Signal;HPM_P1;HPM_P2
2022/01/14 00:01:51;;;;;;;10.15;8.88;;;;;;;;;;5123719;27;24830;-57
2022/01/14 00:04:17;;;;;;;10.32;8.93;;;;;;;;;;5111253;27;25077;-59
2022/01/14 00:06:42;;;;;;;11.20;9.37;;;;;;;;;;5127006;27;24413;-58
2022/01/14 00:09:10;;;;;;;12.47;9.37;;;;;;;;;;5129333;27;24417;-58
2022/01/14 00:11:36;;;;;;;11.38;9.35;;;;;;;;;;5129605;27;24448;-58
2022/01/14 00:16:29;;;;;;;9.80;8.80;;;;;;;;;;5126652;27;24538;-58
2022/01/14 00:18:54;;;;;;;12.35;10.02;;;;;;;;;;5128183;27;24575;-58
2022/01/14 00:21:20;;;;;;;10.50;9.40;;;;;;;;;;5123049;27;24413;-58
2022/01/14 00:23:50;;;;;;;10.77;8.80;;;;;;;;;;5127456;27;24490;-58
2022/01/14 00:31:57;;;;;;;11.27;9.48;;;;;;;;;;5126113;27;24417;-58
2022/01/14 00:34:22;;;;;;;10.98;8.90;;;;;;;;;;5120280;27;24509;-60
2022/01/14 00:36:47;;;;;;;10.93;9.50;;;;;;;;;;5128282;27;24903;-58
2022/01/14 00:39:13;;;;;;;11.87;9.27;;;;;;;;;;5127939;27;24941;-59
2022/01/14 00:41:39;;;;;;;10.70;8.75;;;;;;;;;;5127280;27;24416;-58
2022/01/14 00:44:09;;;;;;;10.38;9.10;;;;;;;;;;5123489;27;24803;-58
2022/01/14 00:46:35;;;;;;;11.73;8.93;;;;;;;;;;5127711;27;25019;-58
2022/01/14 00:49:00;;;;;;;10.83;9.20;;;;;;;;;;5128458;27;24417;-58
2022/01/14 00:51:25;;;;;;;11.50;9.70;;;;;;;;;;5127430;27;24436;-58
2022/01/14 00:53:50;;;;;;;12.47;9.40;;;;;;;;;;5127413;27;24557;-58
2022/01/14 01:01:34;;;;;;;10.45;9.32;;;;;;;;;;5127230;27;24443;-58
2022/01/14 01:03:59;;;;;;;10.03;9.03;;;;;;;;;;5127037;27;24416;-59
2022/01/14 01:06:25;;;;;;;11.55;10.00;;;;;;;;;;5127498;27;24444;-58
2022/01/14 01:08:52;;;;;;;12.50;11.20;;;;;;;;;;5128251;27;24409;-58
2022/01/14 01:11:24;;;;;;;11.68;10.07;;;;;;;;;;5128170;27;24420;-58
2022/01/14 01:14:00;;;;;;;14.85;11.40;;;;;;;;;;5124726;27;24435;-59
2022/01/14 01:16:26;;;;;;;10.88;9.77;;;;;;;;;;5113200;27;24483;-59
2022/01/14 01:18:51;;;;;;;13.50;11.13;;;;;;;;;;5118525;27;24767;-59
2022/01/14 01:21:16;;;;;;;12.07;10.40;;;;;;;;;;5126540;27;24424;-58
2022/01/14 01:23:42;;;;;;;13.40;11.45;;;;;;;;;;5127458;27;24851;-59
2022/01/14 01:26:14;;;;;;;12.23;10.82;;;;;;;;;;5122663;27;24420;-58
2022/01/14 01:28:54;;;;;;;11.25;9.43;;;;;;;;;;5124360;27;24713;-59
2022/01/14 01:31:35;;;;;;;11.00;9.90;;;;;;;;;;5123211;27;24424;-59
2022/01/14 01:34:00;;;;;;;12.70;10.85;;;;;;;;;;5128012;27;24424;-58
2022/01/14 01:36:25;;;;;;;12.10;10.70;;;;;;;;;;5127206;27;24460;-58
2022/01/14 01:38:51;;;;;;;12.23;10.50;;;;;;;;;;5127700;27;24405;-59
2022/01/14 01:41:17;;;;;;;12.93;10.60;;;;;;;;;;5127603;27;24408;-58
2022/01/14 01:43:44;;;;;;;11.73;10.53;;;;;;;;;;5125636;27;24465;-58
2022/01/14 01:46:10;;;;;;;12.70;11.10;;;;;;;;;;5127925;27;24400;-58
2022/01/14 01:48:35;;;;;;;12.90;11.57;;;;;;;;;;5125588;27;24396;-58
2022/01/14 01:51:00;;;;;;;12.20;10.90;;;;;;;;;;5125396;27;24393;-58
2022/01/14 01:53:25;;;;;;;12.07;10.70;;;;;;;;;;5127317;27;24414;-58
2022/01/14 01:55:50;;;;;;;11.20;10.10;;;;;;;;;;5127094;27;24468;-57
2022/01/14 01:58:15;;;;;;;11.30;10.20;;;;;;;;;;5125798;27;24779;-58
2022/01/14 02:00:41;;;;;;;11.52;10.10;;;;;;;;;;5122067;27;24412;-58
2022/01/14 02:03:07;;;;;;;12.75;11.30;;;;;;;;;;5106816;28;24417;-58
2022/01/14 02:05:32;;;;;;;12.77;11.38;;;;;;;;;;5106786;28;24440;-58
2022/01/14 02:07:57;;;;;;;12.43;11.13;;;;;;;;;;5106597;28;24943;-58
2022/01/14 02:10:24;;;;;;;11.68;10.48;;;;;;;;;;5123530;27;24652;-58
2022/01/14 02:12:51;;;;;;;12.88;11.50;;;;;;;;;;5127004;27;24409;-58
2022/01/14 02:23:16;;;;;;;12.88;11.57;;;;;;;;;;5126381;27;25079;-58
2022/01/14 02:25:41;;;;;;;12.35;11.05;;;;;;;;;;5126088;27;24436;-59
2022/01/14 02:28:07;;;;;;;12.43;10.83;;;;;;;;;;5126551;28;24401;-58
2022/01/14 02:30:39;;;;;;;13.23;11.82;;;;;;;;;;5123133;28;24466;-58
2022/01/14 02:33:04;;;;;;;12.20;10.82;;;;;;;;;;5126379;28;24951;-57
2022/01/14 02:35:29;;;;;;;13.87;12.47;;;;;;;;;;5126451;28;24428;-58
2022/01/14 02:37:54;;;;;;;12.67;11.37;;;;;;;;;;5126164;28;24448;-58
2022/01/14 02:40:20;;;;;;;14.60;13.03;;;;;;;;;;5125174;28;24413;-58
2022/01/14 02:42:47;;;;;;;13.20;11.80;;;;;;;;;;5120765;27;24786;-58
2022/01/14 02:45:13;;;;;;;13.63;12.20;;;;;;;;;;5128143;27;24470;-59
2022/01/14 02:47:38;;;;;;;14.10;12.00;;;;;;;;;;5128815;27;24470;-58
2022/01/14 02:50:06;;;;;;;14.13;12.00;;;;;;;;;;5130537;27;24417;-58
2022/01/14 02:55:31;;;;;;;15.20;12.98;;;;;;;;;;5081156;27;24473;-58
2022/01/14 02:57:57;;;;;;;15.98;14.38;;;;;;;;;;5129302;27;24424;-58
2022/01/14 03:00:24;;;;;;;18.38;14.77;;;;;;;;;;5124534;27;24835;-58
2022/01/14 03:02:50;;;;;;;16.20;14.50;;;;;;;;;;5126166;27;24857;-59
2022/01/14 03:05:16;;;;;;;15.38;13.73;;;;;;;;;;5129968;27;24970;-57
2022/01/14 03:07:42;;;;;;;16.70;14.40;;;;;;;;;;5126097;27;24431;-58
2022/01/14 03:10:08;;;;;;;17.13;14.52;;;;;;;;;;5129827;27;25131;-59
2022/01/14 03:12:34;;;;;;;18.42;15.20;;;;;;;;;;5130243;27;24424;-58
2022/01/14 03:14:59;;;;;;;17.88;15.40;;;;;;;;;;5123727;27;24417;-58
2022/01/14 03:17:24;;;;;;;17.45;15.50;;;;;;;;;;5129886;27;24420;-58
2022/01/14 03:19:49;;;;;;;18.90;16.58;;;;;;;;;;5130030;27;24405;-58
2022/01/14 03:22:27;;;;;;;18.50;15.43;;;;;;;;;;5126962;27;24473;-58
2022/01/14 03:27:18;;;;;;;18.85;15.43;;;;;;;;;;5125111;27;24421;-59
2022/01/14 03:29:44;;;;;;;19.30;16.40;;;;;;;;;;5129069;27;24442;-58
2022/01/14 03:32:09;;;;;;;18.75;16.13;;;;;;;;;;5129473;27;26481;-58
2022/01/14 03:34:34;;;;;;;17.20;15.13;;;;;;;;;;5128631;27;24425;-58
2022/01/14 03:37:00;;;;;;;18.85;15.02;;;;;;;;;;5117982;27;25219;-58
2022/01/14 03:39:25;;;;;;;15.45;13.48;;;;;;;;;;5124754;28;25019;-58
2022/01/14 03:41:50;;;;;;;17.50;15.57;;;;;;;;;;5128192;28;25046;-59
2022/01/14 03:44:16;;;;;;;18.30;15.43;;;;;;;;;;5127560;28;24417;-58
2022/01/14 03:46:41;;;;;;;16.73;13.90;;;;;;;;;;5116169;28;24998;-58
2022/01/14 03:49:06;;;;;;;20.80;16.70;;;;;;;;;;5128405;28;24412;-58
2022/01/14 03:51:32;;;;;;;17.48;15.57;;;;;;;;;;5127916;28;24413;-59
2022/01/14 03:53:57;;;;;;;17.73;15.40;;;;;;;;;;5127471;27;24508;-58
2022/01/14 03:56:25;;;;;;;17.30;15.20;;;;;;;;;;5124596;28;24874;-58
2022/01/14 03:58:51;;;;;;;16.05;14.10;;;;;;;;;;5117623;28;24462;-58
2022/01/14 04:01:18;;;;;;;16.27;14.30;;;;;;;;;;5127351;28;24413;-58
2022/01/14 04:03:43;;;;;;;16.77;14.47;;;;;;;;;;5127753;28;24420;-59
2022/01/14 04:06:12;;;;;;;17.50;14.35;;;;;;;;;;5128233;28;25191;-58
2022/01/14 04:08:37;;;;;;;16.80;14.23;;;;;;;;;;5120572;28;24771;-58
2022/01/14 04:11:03;;;;;;;17.00;14.45;;;;;;;;;;5127644;28;24405;-58
2022/01/14 04:14:17;;;;;;;18.50;15.02;;;;;;;;;;5128386;28;24536;-57
2022/01/14 04:16:21;;;;;;;15.73;13.60;;;;;;;;;;5123971;28;24421;-57
2022/01/14 04:18:48;;;;;;;19.75;15.80;;;;;;;;;;5126447;28;24404;-58
2022/01/14 04:21:13;;;;;;;16.70;14.68;;;;;;;;;;5126908;28;24413;-57
2022/01/14 04:23:38;;;;;;;19.27;16.07;;;;;;;;;;5125809;28;24582;-57
2022/01/14 04:26:03;;;;;;;17.87;15.57;;;;;;;;;;5127100;28;24618;-58
2022/01/14 04:28:30;;;;;;;18.33;15.10;;;;;;;;;;5118659;28;24943;-57
2022/01/14 04:30:56;;;;;;;17.17;15.05;;;;;;;;;;5124384;28;24424;-57
2022/01/14 04:33:21;;;;;;;17.83;14.98;;;;;;;;;;5127420;28;24442;-57
2022/01/14 04:35:47;;;;;;;16.65;14.23;;;;;;;;;;5127495;28;24425;-58
2022/01/14 04:38:12;;;;;;;16.25;14.00;;;;;;;;;;5064549;27;1709616;-58
2022/01/14 04:40:37;;;;;;;15.30;13.70;;;;;;;;;;5125613;27;24844;-57
2022/01/14 04:43:02;;;;;;;14.95;13.35;;;;;;;;;;5127790;27;24424;-57
2022/01/14 04:47:53;;;;;;;17.50;14.40;;;;;;;;;;5128292;27;24421;-58
2022/01/14 04:50:19;;;;;;;15.10;13.50;;;;;;;;;;5122962;27;24417;-58
2022/01/14 04:52:47;;;;;;;15.05;13.43;;;;;;;;;;5128239;27;24762;-58
2022/01/14 04:55:13;;;;;;;16.20;14.50;;;;;;;;;;5127101;27;25062;-58
2022/01/14 04:57:39;;;;;;;15.05;13.13;;;;;;;;;;5127954;27;24534;-57
2022/01/14 05:00:06;;;;;;;14.57;12.70;;;;;;;;;;5124726;27;24513;-58
2022/01/14 05:02:31;;;;;;;15.43;13.07;;;;;;;;;;5125295;27;24415;-57
2022/01/14 05:04:58;;;;;;;15.43;13.03;;;;;;;;;;5128206;27;24895;-58
2022/01/14 05:07:26;;;;;;;14.40;12.10;;;;;;;;;;5127208;27;24428;-59
2022/01/14 05:10:15;;;;;;;15.40;12.65;;;;;;;;;;5125812;27;24525;-58
2022/01/14 05:12:40;;;;;;;14.18;12.20;;;;;;;;;;5126354;27;24498;-58
2022/01/14 05:15:05;;;;;;;13.95;12.38;;;;;;;;;;5120644;27;24425;-58
2022/01/14 05:17:30;;;;;;;13.43;12.13;;;;;;;;;;5126843;27;24437;-58
2022/01/14 05:19:58;;;;;;;13.77;12.37;;;;;;;;;;5124584;27;24730;-58
2022/01/14 05:22:23;;;;;;;16.15;12.85;;;;;;;;;;5121633;27;24405;-58
2022/01/14 05:24:48;;;;;;;13.60;12.10;;;;;;;;;;5125446;27;24423;-57
2022/01/14 05:27:13;;;;;;;14.63;12.30;;;;;;;;;;5123756;27;24417;-57
2022/01/14 05:29:38;;;;;;;12.70;11.40;;;;;;;;;;5125985;27;24417;-57
2022/01/14 05:32:05;;;;;;;13.00;11.60;;;;;;;;;;5126331;27;24845;-57
2022/01/14 05:34:31;;;;;;;13.02;11.63;;;;;;;;;;5124631;27;24423;-57
2022/01/14 05:36:56;;;;;;;14.30;12.80;;;;;;;;;;5120564;27;24569;-59
2022/01/14 05:39:23;;;;;;;12.60;11.40;;;;;;;;;;5124982;27;24994;-58
2022/01/14 05:41:48;;;;;;;13.80;11.82;;;;;;;;;;5122073;27;24435;-58
2022/01/14 05:44:13;;;;;;;13.00;11.30;;;;;;;;;;5125122;27;25217;-58
2022/01/14 05:46:39;;;;;;;13.88;12.38;;;;;;;;;;5134707;27;24416;-58
2022/01/14 05:49:04;;;;;;;13.80;12.30;;;;;;;;;;5129753;27;24463;-58
2022/01/14 05:51:29;;;;;;;12.90;11.50;;;;;;;;;;5120718;27;24417;-58
2022/01/14 05:53:54;;;;;;;13.40;12.00;;;;;;;;;;5140816;27;24408;-58
2022/01/14 05:56:19;;;;;;;14.03;11.93;;;;;;;;;;5124039;27;24429;-58
2022/01/14 05:58:44;;;;;;;13.13;11.57;;;;;;;;;;5125661;27;24827;-58
2022/01/14 06:01:10;;;;;;;14.30;11.60;;;;;;;;;;5134130;27;24409;-58
2022/01/14 06:03:35;;;;;;;12.50;11.20;;;;;;;;;;5130541;27;26717;-58
2022/01/14 06:06:00;;;;;;;13.70;11.97;;;;;;;;;;5135446;27;24458;-57
2022/01/14 06:08:25;;;;;;;15.07;12.07;;;;;;;;;;5121861;27;24966;-58
2022/01/14 06:10:50;;;;;;;12.77;11.40;;;;;;;;;;5116608;27;24497;-56
2022/01/14 06:13:16;;;;;;;11.67;10.47;;;;;;;;;;5134298;27;24596;-58
2022/01/14 06:15:41;;;;;;;13.30;11.90;;;;;;;;;;5130054;27;24470;-57
2022/01/14 06:18:06;;;;;;;14.17;12.30;;;;;;;;;;5112763;27;24460;-58
2022/01/14 06:20:31;;;;;;;16.97;14.07;;;;;;;;;;5127666;27;24970;-58
2022/01/14 06:22:56;;;;;;;20.10;15.40;;;;;;;;;;5123391;27;24432;-57
2022/01/14 06:25:21;;;;;;;23.75;17.55;;;;;;;;;;5119645;27;24488;-57
2022/01/14 06:27:46;;;;;;;20.93;17.40;;;;;;;;;;5106600;28;24856;-58
2022/01/14 06:30:12;;;;;;;20.70;16.80;;;;;;;;;;5106160;28;24397;-58
2022/01/14 06:32:41;;;;;;;21.92;18.05;;;;;;;;;;5114690;28;24420;-58
2022/01/14 06:35:08;;;;;;;20.05;16.88;;;;;;;;;;5126528;28;24425;-59
2022/01/14 06:37:33;;;;;;;22.23;18.60;;;;;;;;;;5126285;28;24544;-58
2022/01/14 06:39:58;;;;;;;22.58;18.08;;;;;;;;;;5126492;28;24543;-58
2022/01/14 06:42:23;;;;;;;25.30;19.00;;;;;;;;;;5124657;28;24954;-58
2022/01/14 06:44:49;;;;;;;23.77;18.97;;;;;;;;;;5127015;28;24602;-58
2022/01/14 06:47:14;;;;;;;21.87;17.97;;;;;;;;;;5126419;28;24794;-58
2022/01/14 06:49:39;;;;;;;21.00;17.50;;;;;;;;;;5126980;27;24495;-59
2022/01/14 06:52:04;;;;;;;22.63;18.10;;;;;;;;;;5138977;27;24501;-54
2022/01/14 06:54:29;;;;;;;23.47;18.07;;;;;;;;;;5128947;27;24419;-54
2022/01/14 06:56:54;;;;;;;21.70;17.30;;;;;;;;;;5131495;27;24473;-57
2022/01/14 06:59:20;;;;;;;20.67;16.70;;;;;;;;;;5143604;27;24412;-56
2022/01/14 07:01:45;;;;;;;20.08;16.60;;;;;;;;;;5129935;27;24988;-57
2022/01/14 07:04:11;;;;;;;19.93;16.50;;;;;;;;;;5122806;28;24465;-58
2022/01/14 07:06:36;;;;;;;23.70;18.73;;;;;;;;;;5122702;28;24505;-58
2022/01/14 07:09:01;;;;;;;22.13;16.58;;;;;;;;;;5123343;28;24547;-57
2022/01/14 07:11:30;;;;;;;23.53;18.00;;;;;;;;;;5123129;28;25011;-58
2022/01/14 07:13:56;;;;;;;22.55;17.73;;;;;;;;;;5130746;27;24417;-58
2022/01/14 07:16:21;;;;;;;21.48;16.65;;;;;;;;;;5131895;27;24444;-58
2022/01/14 07:18:48;;;;;;;21.80;16.67;;;;;;;;;;5128971;27;25023;-58
2022/01/14 07:21:13;;;;;;;22.15;17.35;;;;;;;;;;5129472;27;24405;-58
2022/01/14 07:23:39;;;;;;;20.95;17.48;;;;;;;;;;5134423;27;24466;-58
2022/01/14 07:26:04;;;;;;;19.40;16.30;;;;;;;;;;5124300;27;24423;-57
2022/01/14 07:28:29;;;;;;;20.60;16.03;;;;;;;;;;5123561;27;24500;-57
2022/01/14 07:30:54;;;;;;;21.67;16.77;;;;;;;;;;5126170;27;24602;-57
2022/01/14 07:33:19;;;;;;;21.75;16.60;;;;;;;;;;5126575;27;24413;-59
2022/01/14 07:35:44;;;;;;;21.65;17.00;;;;;;;;;;5127022;27;24729;-59
2022/01/14 07:38:09;;;;;;;21.05;16.70;;;;;;;;;;5129802;27;24514;-58
2022/01/14 07:40:37;;;;;;;18.43;15.27;;;;;;;;;;5126573;27;24412;-58
2022/01/14 07:43:02;;;;;;;20.00;15.52;;;;;;;;;;5129749;27;24453;-57
2022/01/14 07:45:27;;;;;;;18.50;15.50;;;;;;;;;;5110888;27;24410;-57
2022/01/14 07:47:52;;;;;;;19.50;16.20;;;;;;;;;;5130031;27;24923;-57
2022/01/14 07:50:17;;;;;;;19.85;16.38;;;;;;;;;;5129642;27;25404;-57
2022/01/14 07:52:43;;;;;;;19.93;16.30;;;;;;;;;;5129638;27;24938;-57
2022/01/14 07:55:08;;;;;;;18.20;14.93;;;;;;;;;;5129384;27;24424;-57
2022/01/14 07:57:33;;;;;;;20.30;15.37;;;;;;;;;;5129745;27;24474;-57
2022/01/14 07:59:58;;;;;;;19.87;15.70;;;;;;;;;;5129504;27;24957;-58
2022/01/14 08:02:25;;;;;;;19.47;15.20;;;;;;;;;;5129214;27;24409;-59
2022/01/14 08:04:51;;;;;;;19.37;15.53;;;;;;;;;;5129573;27;24517;-59
2022/01/14 08:07:22;;;;;;;16.50;13.70;;;;;;;;;;5129372;27;24491;-58
2022/01/14 08:09:47;;;;;;;14.15;12.38;;;;;;;;;;5129550;27;24539;-58
2022/01/14 08:12:12;;;;;;;15.00;12.83;;;;;;;;;;5127124;27;24397;-58
2022/01/14 08:14:37;;;;;;;15.60;11.93;;;;;;;;;;5129565;27;24416;-58
2022/01/14 08:17:03;;;;;;;14.33;11.70;;;;;;;;;;5128717;27;24520;-57
2022/01/14 08:19:33;;;;;;;12.70;10.55;;;;;;;;;;5129405;27;24942;-57
2022/01/14 08:21:58;;;;;;;12.18;10.38;;;;;;;;;;5129043;27;24488;-57
2022/01/14 08:24:23;;;;;;;11.30;9.50;;;;;;;;;;5128920;27;24485;-57
2022/01/14 08:26:49;;;;;;;10.68;9.57;;;;;;;;;;5128576;27;24424;-57
2022/01/14 08:29:14;;;;;;;9.80;8.27;;;;;;;;;;5128613;27;24446;-58
2022/01/14 08:31:39;;;;;;;9.80;8.80;;;;;;;;;;5128660;27;24413;-56
2022/01/14 08:34:04;;;;;;;9.90;8.83;;;;;;;;;;5128208;27;24405;-57
2022/01/14 08:36:30;;;;;;;10.18;9.02;;;;;;;;;;5128396;27;24536;-57
2022/01/14 08:38:55;;;;;;;9.50;8.43;;;;;;;;;;5128694;27;24413;-56
2022/01/14 08:41:20;;;;;;;9.60;8.40;;;;;;;;;;5127066;27;24957;-56
2022/01/14 08:43:47;;;;;;;9.33;8.37;;;;;;;;;;5109693;27;24405;-58
2022/01/14 08:46:12;;;;;;;9.25;8.25;;;;;;;;;;5128692;27;24508;-56
2022/01/14 08:48:37;;;;;;;9.20;8.07;;;;;;;;;;5128455;27;24516;-57
2022/01/14 08:51:03;;;;;;;10.45;8.20;;;;;;;;;;5126052;27;24396;-59
2022/01/14 08:53:28;;;;;;;8.73;7.83;;;;;;;;;;5128638;27;24465;-56
2022/01/14 08:55:53;;;;;;;15.45;12.00;;;;;;;;;;5127006;27;24437;-56
2022/01/14 08:58:18;;;;;;;12.30;9.60;;;;;;;;;;5128110;27;24839;-58
2022/01/14 09:00:43;;;;;;;10.10;9.00;;;;;;;;;;5128052;27;24416;-58
2022/01/14 09:03:09;;;;;;;10.97;9.30;;;;;;;;;;5128177;27;24422;-59
2022/01/14 09:05:34;;;;;;;11.60;9.20;;;;;;;;;;5128157;27;24950;-58
2022/01/14 09:08:00;;;;;;;9.70;8.70;;;;;;;;;;5127843;27;25100;-58
2022/01/14 09:10:26;;;;;;;11.50;9.50;;;;;;;;;;5127806;27;24461;-58
2022/01/14 09:12:51;;;;;;;11.30;9.00;;;;;;;;;;5127017;27;24425;-58
2022/01/14 09:15:16;;;;;;;11.98;9.18;;;;;;;;;;5127398;27;24424;-58
2022/01/14 09:17:41;;;;;;;11.47;9.70;;;;;;;;;;5128082;27;24432;-58
2022/01/14 09:20:07;;;;;;;11.80;9.43;;;;;;;;;;5127968;27;24966;-59
2022/01/14 09:22:34;;;;;;;12.47;10.43;;;;;;;;;;5127785;27;24413;-58
2022/01/14 09:24:59;;;;;;;13.88;10.95;;;;;;;;;;5127834;27;24416;-58
2022/01/14 09:27:27;;;;;;;15.33;11.77;;;;;;;;;;5127858;27;24785;-58
2022/01/14 09:29:54;;;;;;;17.60;12.95;;;;;;;;;;5127633;27;24393;-58
2022/01/14 09:32:19;;;;;;;15.95;13.38;;;;;;;;;;5126932;27;24424;-59
2022/01/14 09:34:44;;;;;;;18.37;13.53;;;;;;;;;;5127723;27;24381;-58
2022/01/14 09:37:09;;;;;;;19.93;14.73;;;;;;;;;;5126759;27;24876;-59
2022/01/14 09:39:36;;;;;;;19.35;13.95;;;;;;;;;;5127735;27;24879;-58
2022/01/14 09:42:02;;;;;;;20.03;14.23;;;;;;;;;;5126927;27;24500;-58
2022/01/14 09:44:27;;;;;;;19.95;15.38;;;;;;;;;;5127347;27;24477;-57
2022/01/14 09:46:52;;;;;;;21.60;15.97;;;;;;;;;;5127355;27;24477;-57
2022/01/14 09:49:18;;;;;;;23.63;17.20;;;;;;;;;;5126545;27;24451;-57
2022/01/14 09:51:43;;;;;;;25.95;17.88;;;;;;;;;;5126518;27;24548;-58
2022/01/14 09:54:10;;;;;;;23.40;18.10;;;;;;;;;;5127233;27;24465;-57
2022/01/14 09:56:36;;;;;;;24.70;18.05;;;;;;;;;;5127628;27;24416;-57
2022/01/14 09:59:02;;;;;;;22.10;17.77;;;;;;;;;;5126812;27;24892;-57
2022/01/14 10:01:28;;;;;;;23.58;17.88;;;;;;;;;;5123972;27;24988;-57
2022/01/14 10:03:55;;;;;;;25.70;18.00;;;;;;;;;;5127264;27;24472;-57
2022/01/14 10:06:39;;;;;;;27.15;18.52;;;;;;;;;;5126872;27;24568;-58
2022/01/14 10:09:08;;;;;;;25.05;19.35;;;;;;;;;;5126217;27;24416;-57
2022/01/14 10:11:35;;;;;;;26.07;18.57;;;;;;;;;;5127386;27;24400;-57
2022/01/14 10:14:04;;;;;;;26.90;19.98;;;;;;;;;;5127070;27;24496;-58
2022/01/14 10:16:29;;;;;;;25.83;18.95;;;;;;;;;;5127198;27;24424;-58
2022/01/14 10:18:55;;;;;;;26.13;18.88;;;;;;;;;;5126926;27;24405;-57
2022/01/14 10:21:20;;;;;;;26.30;19.60;;;;;;;;;;5127025;27;24393;-58
2022/01/14 10:23:45;;;;;;;25.80;20.10;;;;;;;;;;5127843;27;24427;-58
2022/01/14 10:26:11;;;;;;;25.27;18.95;;;;;;;;;;5127229;27;24470;-58
2022/01/14 10:28:36;;;;;;;25.55;20.83;;;;;;;;;;5127212;27;24413;-58
2022/01/14 10:31:02;;;;;;;25.67;20.27;;;;;;;;;;5126599;27;24412;-59
2022/01/14 10:33:28;;;;;;;28.90;20.37;;;;;;;;;;5127010;28;24417;-58
2022/01/14 10:35:55;;;;;;;27.80;20.35;;;;;;;;;;5127344;28;24501;-58
2022/01/14 10:38:22;;;;;;;27.55;21.00;;;;;;;;;;5126760;28;24926;-59
2022/01/14 10:40:49;;;;;;;24.48;19.15;;;;;;;;;;5127490;28;24389;-58
2022/01/14 10:43:16;;;;;;;25.38;20.23;;;;;;;;;;5127049;28;24390;-59
2022/01/14 10:45:43;;;;;;;21.40;16.00;;;;;;;;;;5126222;28;24405;-59
2022/01/14 10:48:09;;;;;;;19.95;16.73;;;;;;;;;;5126945;28;24400;-59
2022/01/14 10:50:39;;;;;;;22.17;18.17;;;;;;;;;;5126641;28;24401;-59
2022/01/14 10:53:14;;;;;;;22.15;18.85;;;;;;;;;;5126685;28;24386;-59
2022/01/14 10:55:42;;;;;;;23.10;17.92;;;;;;;;;;5123877;28;24406;-59
2022/01/14 10:58:21;;;;;;;22.70;18.50;;;;;;;;;;5122731;28;24436;-58
2022/01/14 11:00:48;;;;;;;23.58;18.83;;;;;;;;;;5126825;28;24405;-58
2022/01/14 11:03:14;;;;;;;24.73;18.60;;;;;;;;;;5126482;27;24382;-57
2022/01/14 11:05:39;;;;;;;22.40;18.10;;;;;;;;;;5129657;27;24814;-58
2022/01/14 11:08:05;;;;;;;24.60;19.70;;;;;;;;;;5130410;27;24938;-59
2022/01/14 11:10:33;;;;;;;25.20;20.15;;;;;;;;;;5130222;27;24490;-58
2022/01/14 11:12:58;;;;;;;23.42;18.38;;;;;;;;;;5130534;27;24405;-58
2022/01/14 11:15:25;;;;;;;24.55;18.73;;;;;;;;;;5130417;27;24416;-59
2022/01/14 11:17:52;;;;;;;23.47;18.40;;;;;;;;;;5130296;27;24524;-58
2022/01/14 11:20:24;;;;;;;21.77;17.00;;;;;;;;;;5127777;27;24409;-58
2022/01/14 11:25:36;;;;;;;23.60;18.52;;;;;;;;;;5130171;27;24385;-58
2022/01/14 11:28:01;;;;;;;22.63;17.60;;;;;;;;;;5130306;27;24405;-57
2022/01/14 11:30:38;;;;;;;23.90;19.00;;;;;;;;;;5130300;27;24383;-58
2022/01/14 11:33:03;;;;;;;23.45;16.90;;;;;;;;;;5129569;27;24787;-58
2022/01/14 11:35:29;;;;;;;20.40;16.40;;;;;;;;;;5109308;28;24420;-58
2022/01/14 11:37:54;;;;;;;21.40;16.70;;;;;;;;;;5109449;28;24449;-59
2022/01/14 11:40:20;;;;;;;25.40;19.02;;;;;;;;;;5119995;27;24437;-57
2022/01/14 11:42:50;;;;;;;21.90;17.40;;;;;;;;;;5129069;27;24986;-57
2022/01/14 11:45:20;;;;;;;22.50;17.20;;;;;;;;;;5129628;27;24801;-58
2022/01/14 11:47:46;;;;;;;25.20;18.80;;;;;;;;;;5130161;27;24396;-58
2022/01/14 11:50:23;;;;;;;25.75;20.13;;;;;;;;;;5129190;27;24424;-58
2022/01/14 11:52:49;;;;;;;24.48;18.63;;;;;;;;;;5129501;27;24425;-57
2022/01/14 11:55:14;;;;;;;25.00;18.80;;;;;;;;;;5129814;27;24403;-58
2022/01/14 11:57:45;;;;;;;23.90;17.52;;;;;;;;;;5129835;27;24610;-58
2022/01/14 12:00:43;;;;;;;23.67;17.48;;;;;;;;;;5129778;27;24416;-58
2022/01/14 12:03:11;;;;;;;27.02;19.85;;;;;;;;;;5072247;27;24490;-58
2022/01/14 12:05:50;;;;;;;22.58;17.38;;;;;;;;;;5128959;27;24409;-58
2022/01/14 12:08:17;;;;;;;25.17;18.30;;;;;;;;;;5129571;27;24416;-58
2022/01/14 12:10:45;;;;;;;23.98;18.35;;;;;;;;;;5128736;27;24961;-57
2022/01/14 12:13:22;;;;;;;26.58;19.23;;;;;;;;;;5128967;27;25037;-63
2022/01/14 12:15:56;;;;;;;26.60;18.83;;;;;;;;;;5129003;27;24392;-58
2022/01/14 12:18:40;;;;;;;25.77;19.10;;;;;;;;;;5128920;27;24627;-57
2022/01/14 12:21:05;;;;;;;27.52;20.02;;;;;;;;;;5129471;27;24397;-58
2022/01/14 12:23:30;;;;;;;25.65;18.88;;;;;;;;;;5128867;27;24416;-57
2022/01/14 12:25:56;;;;;;;23.42;18.42;;;;;;;;;;5129320;27;24438;-58
2022/01/14 12:28:22;;;;;;;22.70;17.70;;;;;;;;;;5128799;27;24404;-58
2022/01/14 12:31:01;;;;;;;22.83;18.80;;;;;;;;;;5128483;27;24502;-59
2022/01/14 12:33:39;;;;;;;25.48;18.77;;;;;;;;;;5128283;27;24389;-58
2022/01/14 12:36:15;;;;;;;21.83;17.40;;;;;;;;;;5128580;27;24417;-58
2022/01/14 12:38:41;;;;;;;24.48;17.90;;;;;;;;;;5129126;27;24432;-58
2022/01/14 12:41:13;;;;;;;25.42;18.65;;;;;;;;;;5128697;27;24941;-58
2022/01/14 12:43:46;;;;;;;22.63;17.70;;;;;;;;;;5128170;27;24416;-58
2022/01/14 12:46:14;;;;;;;23.48;18.30;;;;;;;;;;5127955;27;25017;-58
2022/01/14 12:48:49;;;;;;;24.52;18.67;;;;;;;;;;5128584;27;25299;-59
2022/01/14 12:51:16;;;;;;;24.55;18.88;;;;;;;;;;5127843;27;24409;-59
2022/01/14 12:53:46;;;;;;;22.27;18.08;;;;;;;;;;5127861;27;25007;-58
2022/01/14 12:56:15;;;;;;;25.30;19.60;;;;;;;;;;5121121;27;24509;-58
2022/01/14 12:58:57;;;;;;;24.55;17.83;;;;;;;;;;5107468;28;24394;-58
2022/01/14 13:01:29;;;;;;;23.38;17.35;;;;;;;;;;5110084;27;24401;-58
2022/01/14 13:03:56;;;;;;;23.20;17.92;;;;;;;;;;5127667;27;24465;-58
2022/01/14 13:06:21;;;;;;;21.75;17.35;;;;;;;;;;5127099;27;25022;-58
2022/01/14 13:08:54;;;;;;;24.27;18.05;;;;;;;;;;5127889;27;24432;-58
2022/01/14 13:11:19;;;;;;;25.88;19.50;;;;;;;;;;5127803;27;24405;-59
2022/01/14 13:13:45;;;;;;;23.47;17.30;;;;;;;;;;5127483;27;24408;-58
2022/01/14 13:16:10;;;;;;;25.10;18.97;;;;;;;;;;5127796;27;24433;-59
2022/01/14 13:18:45;;;;;;;26.43;20.00;;;;;;;;;;5127107;27;24406;-59
2022/01/14 13:21:10;;;;;;;25.38;18.75;;;;;;;;;;5127163;27;24436;-58
2022/01/14 13:23:35;;;;;;;25.30;19.03;;;;;;;;;;5126994;27;24409;-58
2022/01/14 13:26:01;;;;;;;27.63;20.20;;;;;;;;;;5128002;27;24939;-58
2022/01/14 13:28:26;;;;;;;29.15;20.80;;;;;;;;;;5126468;27;24409;-58
2022/01/14 13:30:52;;;;;;;26.73;20.90;;;;;;;;;;5127249;27;24501;-58
2022/01/14 13:33:17;;;;;;;25.63;20.00;;;;;;;;;;5126565;27;24635;-58
2022/01/14 13:35:45;;;;;;;27.83;20.42;;;;;;;;;;5127194;27;24393;-58
2022/01/14 13:38:12;;;;;;;30.85;22.85;;;;;;;;;;5126881;27;24430;-57
2022/01/14 13:40:54;;;;;;;31.13;21.98;;;;;;;;;;5126478;27;24458;-59
2022/01/14 13:43:22;;;;;;;27.98;19.55;;;;;;;;;;5126760;27;24409;-59
2022/01/14 13:45:48;;;;;;;28.88;19.65;;;;;;;;;;5127650;27;24930;-57
2022/01/14 13:48:19;;;;;;;29.40;23.60;;;;;;;;;;5127577;27;24400;-58
2022/01/14 13:50:45;;;;;;;32.72;22.00;;;;;;;;;;5126675;27;24983;-59
2022/01/14 13:53:12;;;;;;;32.88;23.60;;;;;;;;;;5126895;27;24421;-59
2022/01/14 13:55:44;;;;;;;35.42;24.27;;;;;;;;;;5127108;27;24960;-56
2022/01/14 13:58:15;;;;;;;33.25;23.52;;;;;;;;;;5127235;27;24451;-58
2022/01/14 14:00:41;;;;;;;30.45;22.73;;;;;;;;;;5126247;27;25166;-57
2022/01/14 14:03:39;;;;;;;34.73;24.80;;;;;;;;;;5126214;27;24613;-58
2022/01/14 14:06:07;;;;;;;35.30;24.10;;;;;;;;;;5125806;27;24532;-58
2022/01/14 14:16:40;;;;;;;32.08;23.67;;;;;;;;;;5126522;27;24428;-59
2022/01/14 14:19:05;;;;;;;28.77;20.90;;;;;;;;;;5124923;27;24420;-58
2022/01/14 14:21:33;;;;;;;32.75;24.85;;;;;;;;;;5126141;27;24934;-58
2022/01/14 14:23:59;;;;;;;29.17;21.80;;;;;;;;;;5126582;27;24485;-58
2022/01/14 14:26:29;;;;;;;31.20;21.90;;;;;;;;;;5126107;28;24488;-59
2022/01/14 14:28:54;;;;;;;31.75;21.30;;;;;;;;;;5126880;27;24399;-58
2022/01/14 14:31:29;;;;;;;28.43;20.30;;;;;;;;;;5125786;27;24768;-59
2022/01/14 14:33:55;;;;;;;28.40;20.00;;;;;;;;;;5126281;28;24794;-59
2022/01/14 14:36:22;;;;;;;26.33;19.73;;;;;;;;;;5126293;28;25002;-58
2022/01/14 14:38:47;;;;;;;26.70;20.52;;;;;;;;;;5127820;27;25280;-59
2022/01/14 14:41:13;;;;;;;29.47;20.33;;;;;;;;;;5119789;27;24429;-59
2022/01/14 14:43:38;;;;;;;27.23;22.17;;;;;;;;;;5129819;27;24465;-56
2022/01/14 14:46:04;;;;;;;29.17;22.73;;;;;;;;;;5129687;27;24441;-58
2022/01/14 14:48:29;;;;;;;31.73;24.00;;;;;;;;;;5125208;27;24481;-57
2022/01/14 14:50:55;;;;;;;29.38;23.08;;;;;;;;;;5126836;27;24421;-57
2022/01/14 14:53:20;;;;;;;28.40;23.05;;;;;;;;;;5125924;27;24427;-59
2022/01/14 14:55:45;;;;;;;29.35;23.52;;;;;;;;;;5125624;27;24427;-57
2022/01/14 14:58:10;;;;;;;27.58;21.70;;;;;;;;;;5108192;27;24436;-59